createdAt,value
2023-08-19T00:00:05.688Z,0.00
2023-08-19T00:00:22.626Z,0.00
2023-08-19T00:00:39.883Z,0.00
2023-08-19T00:01:09.847Z,0.00
2023-08-19T00:01:33.042Z,0.00
2023-08-19T00:01:57.925Z,0.00
2023-08-19T00:02:30.955Z,0.00
2023-08-19T00:03:02.038Z,0.00
2023-08-19T00:03:34.060Z,0.00
2023-08-19T00:04:06.070Z,0.00
2023-08-19T00:04:33.017Z,0.00
2023-08-19T00:04:53.953Z,0.00
2023-08-19T00:05:25.864Z,0.00
2023-08-19T00:05:58.785Z,0.00
2023-08-19T00:06:29.845Z,0.00
2023-08-19T00:07:02.781Z,0.00
2023-08-19T00:07:33.244Z,0.00
2023-08-19T00:07:49.918Z,0.00
2023-08-19T00:08:21.872Z,0.00
2023-08-19T00:08:39.303Z,0.00
2023-08-19T00:09:11.006Z,0.00
2023-08-19T00:09:33.114Z,0.00
2023-08-19T00:09:57.886Z,0.00
2023-08-19T00:10:29.913Z,0.00
2023-08-19T00:11:01.882Z,0.00
2023-08-19T00:11:34.897Z,0.00
2023-08-19T00:12:05.853Z,0.00
2023-08-19T00:12:33.035Z,0.00
2023-08-19T00:12:53.897Z,0.00
2023-08-19T00:13:25.895Z,0.00
2023-08-19T00:13:58.754Z,0.00
2023-08-19T00:14:29.891Z,0.00
2023-08-19T00:15:02.766Z,0.00
2023-08-19T00:15:33.017Z,0.00
2023-08-19T00:15:49.915Z,0.00
2023-08-19T00:16:21.859Z,0.00
2023-08-19T00:16:39.129Z,0.00
2023-08-19T00:17:10.642Z,0.00
2023-08-19T00:17:33.464Z,0.00
2023-08-19T00:17:57.877Z,0.00
2023-08-19T00:18:29.846Z,0.00
2023-08-19T00:19:01.905Z,0.00
2023-08-19T00:19:32.990Z,0.00
2023-08-19T00:19:50.021Z,0.00
2023-08-19T00:20:23.651Z,0.00
2023-08-19T00:20:40.045Z,0.00
2023-08-19T00:21:09.863Z,0.00
2023-08-19T00:21:33.017Z,0.00
2023-08-19T00:21:57.981Z,0.00
2023-08-19T00:22:30.828Z,0.00
2023-08-19T00:23:01.872Z,0.00
2023-08-19T00:23:35.593Z,0.00
2023-08-19T00:24:05.922Z,0.00
2023-08-19T00:24:33.027Z,0.00
2023-08-19T00:24:53.850Z,0.00
2023-08-19T00:25:25.934Z,0.00
2023-08-19T00:25:58.727Z,0.00
2023-08-19T00:26:29.888Z,0.00
2023-08-19T00:27:02.817Z,0.00
2023-08-19T00:27:33.502Z,0.00
2023-08-19T00:27:49.948Z,0.00
2023-08-19T00:28:21.862Z,0.00
2023-08-19T00:28:39.077Z,0.00
2023-08-19T00:29:10.729Z,0.00
2023-08-19T00:29:33.002Z,0.00
2023-08-19T00:29:57.822Z,0.00
2023-08-19T00:30:29.856Z,0.00
2023-08-19T00:31:01.953Z,0.00
2023-08-19T00:31:34.564Z,0.00
2023-08-19T00:32:05.823Z,0.00
2023-08-19T00:32:33.036Z,0.00
2023-08-19T00:32:53.947Z,0.00
2023-08-19T00:33:26.709Z,0.00
2023-08-19T00:33:57.854Z,0.00
2023-08-19T00:34:31.018Z,0.00
2023-08-19T00:35:02.031Z,0.00
2023-08-19T00:35:34.036Z,0.00
2023-08-19T00:36:05.838Z,0.00
2023-08-19T00:36:32.994Z,0.00
2023-08-19T00:36:53.868Z,0.00
2023-08-19T00:37:25.780Z,0.00
2023-08-19T00:37:58.748Z,0.00
2023-08-19T00:38:29.825Z,0.00
2023-08-19T00:39:02.736Z,0.00
2023-08-19T00:39:33.027Z,0.00
2023-08-19T00:40:05.228Z,0.00
2023-08-19T00:40:24.326Z,0.00
2023-08-19T00:40:39.842Z,0.00
2023-08-19T00:41:09.887Z,0.00
2023-08-19T00:41:33.026Z,0.00
2023-08-19T00:41:57.819Z,0.00
2023-08-19T00:42:30.991Z,0.00
2023-08-19T00:43:01.848Z,0.00
2023-08-19T00:43:34.040Z,0.00
2023-08-19T00:44:05.825Z,0.00
2023-08-19T00:44:33.028Z,0.00
2023-08-19T00:44:53.922Z,0.00
2023-08-19T00:45:25.870Z,0.00
2023-08-19T00:45:58.799Z,0.00
2023-08-19T00:46:29.857Z,0.00
2023-08-19T00:47:02.693Z,0.00
2023-08-19T00:47:33.229Z,0.00
2023-08-19T00:47:50.004Z,0.00
2023-08-19T00:48:21.801Z,0.00
2023-08-19T00:48:39.014Z,0.00
2023-08-19T00:49:10.832Z,0.00
2023-08-19T00:49:33.074Z,0.00
2023-08-19T00:49:57.802Z,0.00
2023-08-19T00:50:29.815Z,0.00
2023-08-19T00:51:01.837Z,0.00
2023-08-19T00:51:33.025Z,0.00
2023-08-19T00:51:50.457Z,0.00
2023-08-19T00:52:22.701Z,0.00
2023-08-19T00:52:40.144Z,0.00
2023-08-19T00:53:09.848Z,0.00
2023-08-19T00:53:34.008Z,0.00
2023-08-19T00:53:57.868Z,0.00
2023-08-19T00:54:30.888Z,0.00
2023-08-19T00:55:02.236Z,0.00
2023-08-19T00:55:34.827Z,0.00
2023-08-19T00:56:05.909Z,0.00
2023-08-19T00:56:33.040Z,0.00
2023-08-19T00:56:53.803Z,0.00
2023-08-19T00:57:25.816Z,0.00
2023-08-19T00:57:59.126Z,0.00
2023-08-19T00:58:29.814Z,0.00
2023-08-19T00:59:03.010Z,0.00
2023-08-19T00:59:32.998Z,0.00
2023-08-19T01:00:05.835Z,0.00
2023-08-19T01:00:22.718Z,0.00
2023-08-19T01:00:39.943Z,0.00
2023-08-19T01:01:09.953Z,0.00
2023-08-19T01:01:33.078Z,0.00
2023-08-19T01:01:57.830Z,0.00
2023-08-19T01:02:31.153Z,0.00
2023-08-19T01:03:01.865Z,0.00
2023-08-19T01:03:34.043Z,0.00
2023-08-19T01:04:06.353Z,0.00
2023-08-19T01:04:33.105Z,0.00
2023-08-19T01:04:53.847Z,0.00
2023-08-19T01:05:25.961Z,0.00
2023-08-19T01:05:58.783Z,0.00
2023-08-19T01:06:29.797Z,0.00
2023-08-19T01:07:02.803Z,0.00
2023-08-19T01:07:33.266Z,0.00
2023-08-19T01:08:05.269Z,0.00
2023-08-19T01:08:22.622Z,0.00
2023-08-19T01:08:39.918Z,0.00
2023-08-19T01:09:10.698Z,0.00
2023-08-19T01:09:33.918Z,0.00
2023-08-19T01:09:57.891Z,0.00
2023-08-19T01:10:30.780Z,0.00
2023-08-19T01:11:01.790Z,0.00
2023-08-19T01:11:34.387Z,0.00
2023-08-19T01:12:05.817Z,0.00
2023-08-19T01:12:32.981Z,0.00
2023-08-19T01:12:53.804Z,0.00
2023-08-19T01:13:25.780Z,0.00
2023-08-19T01:13:58.704Z,0.00
2023-08-19T01:14:29.786Z,0.00
2023-08-19T01:15:02.696Z,0.00
2023-08-19T01:15:33.079Z,0.00
2023-08-19T01:16:05.292Z,0.00
2023-08-19T01:16:22.874Z,0.00
2023-08-19T01:16:39.996Z,0.00
2023-08-19T01:17:09.781Z,0.00
2023-08-19T01:17:33.409Z,0.00
2023-08-19T01:17:57.826Z,0.00
2023-08-19T01:18:33.572Z,0.00
2023-08-19T01:19:01.790Z,0.00
2023-08-19T01:19:33.072Z,0.00
2023-08-19T01:20:06.734Z,0.00
2023-08-19T01:20:33.830Z,0.00
2023-08-19T01:20:53.839Z,0.00
2023-08-19T01:21:25.830Z,0.00
2023-08-19T01:21:57.770Z,0.00
2023-08-19T01:22:29.748Z,0.00
2023-08-19T01:23:01.781Z,0.00
2023-08-19T01:23:33.016Z,0.00
2023-08-19T01:23:49.570Z,0.00
2023-08-19T01:24:22.613Z,0.00
2023-08-19T01:24:40.327Z,0.00
2023-08-19T01:25:09.934Z,0.00
2023-08-19T01:25:33.009Z,0.00
2023-08-19T01:25:57.768Z,0.00
2023-08-19T01:26:30.660Z,0.00
2023-08-19T01:27:01.767Z,0.00
2023-08-19T01:27:34.173Z,0.00
2023-08-19T01:28:05.790Z,0.00
2023-08-19T01:28:33.038Z,0.00
2023-08-19T01:28:53.774Z,0.00
2023-08-19T01:29:25.781Z,0.00
2023-08-19T01:29:58.889Z,0.00
2023-08-19T01:30:30.814Z,0.00
2023-08-19T01:31:03.713Z,0.00
2023-08-19T01:31:33.060Z,0.00
2023-08-19T01:31:49.553Z,0.00
2023-08-19T01:32:21.982Z,0.00
2023-08-19T01:32:39.218Z,0.00
2023-08-19T01:33:11.138Z,0.00
2023-08-19T01:33:33.826Z,0.00
2023-08-19T01:33:57.740Z,0.00
2023-08-19T01:34:29.786Z,0.00
2023-08-19T01:35:01.971Z,0.00
2023-08-19T01:35:33.025Z,0.00
2023-08-19T01:35:49.809Z,0.00
2023-08-19T01:36:22.603Z,0.00
2023-08-19T01:36:39.863Z,0.00
2023-08-19T01:37:09.737Z,0.00
2023-08-19T01:37:33.341Z,0.00
2023-08-19T01:37:57.795Z,0.00
2023-08-19T01:38:31.017Z,0.00
2023-08-19T01:39:09.170Z,0.00
2023-08-19T01:39:17.723Z,0.00
2023-08-19T01:39:36.584Z,0.00
2023-08-19T01:40:05.758Z,0.00
2023-08-19T01:40:33.051Z,0.00
2023-08-19T01:40:53.817Z,0.00
2023-08-19T01:41:32.724Z,0.00
2023-08-19T01:41:58.714Z,0.00
2023-08-19T01:42:29.694Z,0.00
2023-08-19T01:43:02.668Z,0.00
2023-08-19T01:43:33.000Z,0.00
2023-08-19T01:43:49.505Z,0.00
2023-08-19T01:44:21.738Z,0.00
2023-08-19T01:44:38.967Z,0.00
2023-08-19T01:45:11.037Z,0.00
2023-08-19T01:45:33.046Z,0.00
2023-08-19T01:45:57.780Z,0.00
2023-08-19T01:46:29.785Z,0.00
2023-08-19T01:47:01.735Z,0.00
2023-08-19T01:47:33.375Z,0.00
2023-08-19T01:47:49.587Z,0.00
2023-08-19T01:48:22.927Z,0.00
2023-08-19T01:48:40.165Z,0.00
2023-08-19T01:49:09.711Z,0.00
2023-08-19T01:49:33.597Z,0.00
2023-08-19T01:49:57.765Z,0.00
2023-08-19T01:50:31.628Z,0.00
2023-08-19T01:51:01.702Z,0.00
2023-08-19T01:51:34.140Z,0.00
2023-08-19T01:52:05.737Z,0.00
2023-08-19T01:52:33.022Z,0.00
2023-08-19T01:52:53.792Z,0.00
2023-08-19T01:53:25.716Z,0.00
2023-08-19T01:53:58.662Z,0.00
2023-08-19T01:54:29.738Z,0.00
2023-08-19T01:55:03.044Z,0.00
2023-08-19T01:55:33.096Z,0.00
2023-08-19T01:55:49.494Z,0.00
2023-08-19T01:56:21.692Z,0.00
2023-08-19T01:56:38.940Z,0.00
2023-08-19T01:57:10.705Z,0.00
2023-08-19T01:57:33.391Z,0.00
2023-08-19T01:57:57.760Z,0.00
2023-08-19T01:58:29.694Z,0.00
2023-08-19T01:59:01.828Z,0.00
2023-08-19T01:59:33.007Z,0.00
2023-08-19T01:59:49.826Z,0.00
2023-08-19T02:00:22.706Z,0.00
2023-08-19T02:00:40.268Z,0.00
2023-08-19T02:01:09.768Z,0.00
2023-08-19T02:01:33.103Z,0.00
2023-08-19T02:01:57.926Z,0.00
2023-08-19T02:02:30.710Z,0.00
2023-08-19T02:03:01.722Z,0.00
2023-08-19T02:03:33.953Z,0.00
2023-08-19T02:04:05.703Z,0.00
2023-08-19T02:04:33.023Z,0.00
2023-08-19T02:04:53.752Z,0.00
2023-08-19T02:05:25.771Z,0.00
2023-08-19T02:05:58.685Z,0.00
2023-08-19T02:06:29.811Z,0.00
2023-08-19T02:07:02.684Z,0.00
2023-08-19T02:07:33.264Z,0.00
2023-08-19T02:07:49.486Z,0.00
2023-08-19T02:08:21.699Z,0.00
2023-08-19T02:08:38.942Z,0.00
2023-08-19T02:09:10.748Z,0.00
2023-08-19T02:09:33.061Z,0.00
2023-08-19T02:09:57.700Z,0.00
2023-08-19T02:10:29.696Z,0.00
2023-08-19T02:11:01.734Z,0.00
2023-08-19T02:11:32.991Z,0.00
2023-08-19T02:11:49.597Z,0.00
2023-08-19T02:12:22.629Z,0.00
2023-08-19T02:12:39.782Z,0.00
2023-08-19T02:13:09.755Z,0.00
2023-08-19T02:13:33.543Z,0.00
2023-08-19T02:13:58.355Z,0.00
2023-08-19T02:14:30.599Z,0.00
2023-08-19T02:15:02.201Z,0.00
2023-08-19T02:15:35.118Z,0.00
2023-08-19T02:16:05.780Z,0.00
2023-08-19T02:16:33.835Z,0.00
2023-08-19T02:16:53.704Z,0.00
2023-08-19T02:17:25.720Z,0.00
2023-08-19T02:17:58.608Z,0.00
2023-08-19T02:18:29.706Z,0.00
2023-08-19T02:19:02.754Z,0.00
2023-08-19T02:19:33.543Z,0.00
2023-08-19T02:20:06.564Z,0.00
2023-08-19T02:20:33.015Z,0.00
2023-08-19T02:20:53.696Z,0.00
2023-08-19T02:21:25.718Z,0.00
2023-08-19T02:21:57.674Z,0.00
2023-08-19T02:22:29.720Z,0.00
2023-08-19T02:23:01.692Z,0.00
2023-08-19T02:23:33.030Z,0.00
2023-08-19T02:23:49.512Z,0.00
2023-08-19T02:24:22.838Z,0.00
2023-08-19T02:24:40.002Z,0.00
2023-08-19T02:25:10.930Z,0.00
2023-08-19T02:25:33.195Z,0.00
2023-08-19T02:25:57.724Z,0.00
2023-08-19T02:26:30.572Z,0.00
2023-08-19T02:27:01.799Z,0.00
2023-08-19T02:27:34.322Z,0.00
2023-08-19T02:28:05.691Z,0.00
2023-08-19T02:28:33.964Z,0.00
2023-08-19T02:28:53.812Z,0.00
2023-08-19T02:29:25.686Z,0.00
2023-08-19T02:29:58.696Z,0.00
2023-08-19T02:30:29.666Z,0.00
2023-08-19T02:31:02.705Z,0.00
2023-08-19T02:31:33.042Z,0.00
2023-08-19T02:31:49.523Z,0.00
2023-08-19T02:32:21.674Z,0.00
2023-08-19T02:32:38.994Z,0.00
2023-08-19T02:33:10.640Z,0.00
2023-08-19T02:33:33.105Z,0.00
2023-08-19T02:33:57.651Z,0.00
2023-08-19T02:34:30.072Z,0.00
2023-08-19T02:35:01.953Z,0.00
2023-08-19T02:35:33.018Z,0.00
2023-08-19T02:35:49.526Z,0.00
2023-08-19T02:36:22.696Z,0.00
2023-08-19T02:36:40.114Z,0.00
2023-08-19T02:37:09.652Z,0.00
2023-08-19T02:37:33.675Z,0.00
2023-08-19T02:37:57.679Z,0.00
2023-08-19T02:38:30.633Z,0.00
2023-08-19T02:39:01.650Z,0.00
2023-08-19T02:39:34.434Z,0.00
2023-08-19T02:40:05.669Z,0.00
2023-08-19T02:40:32.962Z,0.00
2023-08-19T02:40:53.697Z,0.00
2023-08-19T02:41:25.618Z,0.00
2023-08-19T02:41:58.587Z,0.00
2023-08-19T02:42:29.658Z,0.00
2023-08-19T02:43:02.786Z,0.00
2023-08-19T02:43:33.019Z,0.00
2023-08-19T02:43:49.482Z,0.00
2023-08-19T02:44:21.633Z,0.00
2023-08-19T02:44:39.912Z,0.00
2023-08-19T02:45:09.802Z,0.00
2023-08-19T02:45:32.988Z,0.00
2023-08-19T02:45:57.677Z,0.00
2023-08-19T02:46:29.642Z,0.00
2023-08-19T02:47:02.750Z,0.00
2023-08-19T02:47:33.456Z,0.00
2023-08-19T02:47:49.517Z,0.00
2023-08-19T02:48:21.697Z,0.00
2023-08-19T02:48:38.945Z,0.00
2023-08-19T02:49:10.576Z,0.00
2023-08-19T02:49:33.885Z,0.00
2023-08-19T02:49:57.740Z,0.00
2023-08-19T02:50:29.655Z,0.00
2023-08-19T02:51:01.626Z,0.00
2023-08-19T02:51:33.004Z,0.00
2023-08-19T02:51:49.505Z,0.00
2023-08-19T02:52:22.705Z,0.00
2023-08-19T02:52:39.838Z,0.00
2023-08-19T02:53:09.634Z,0.00
2023-08-19T02:53:33.012Z,0.00
2023-08-19T02:53:57.607Z,0.00
2023-08-19T02:54:30.746Z,0.00
2023-08-19T02:55:02.014Z,0.00
2023-08-19T02:55:33.915Z,0.00
2023-08-19T02:56:05.632Z,0.00
2023-08-19T02:56:32.995Z,0.00
2023-08-19T02:56:53.729Z,0.00
2023-08-19T02:57:25.618Z,0.00
2023-08-19T02:57:58.656Z,0.00
2023-08-19T02:58:29.629Z,0.00
2023-08-19T02:59:03.072Z,0.00
2023-08-19T02:59:32.991Z,0.00
2023-08-19T02:59:49.796Z,0.00
2023-08-19T03:00:21.640Z,0.00
2023-08-19T03:00:38.907Z,0.00
2023-08-19T03:01:10.606Z,0.00
2023-08-19T03:01:33.021Z,0.00
2023-08-19T03:02:11.234Z,0.00
2023-08-19T03:02:14.602Z,0.00
2023-08-19T03:02:33.220Z,0.00
2023-08-19T03:03:02.079Z,0.00
2023-08-19T03:03:33.044Z,0.00
2023-08-19T03:03:49.490Z,0.00
2023-08-19T03:04:23.626Z,0.00
2023-08-19T03:04:40.877Z,0.00
2023-08-19T03:05:09.848Z,0.00
2023-08-19T03:05:33.030Z,0.00
2023-08-19T03:05:58.400Z,0.00
2023-08-19T03:06:30.553Z,0.00
2023-08-19T03:07:01.680Z,0.00
2023-08-19T03:07:34.244Z,0.00
2023-08-19T03:08:05.635Z,0.00
2023-08-19T03:08:33.037Z,0.00
2023-08-19T03:08:53.625Z,0.00
2023-08-19T03:09:25.778Z,0.00
2023-08-19T03:09:58.523Z,0.00
2023-08-19T03:10:29.642Z,0.00
2023-08-19T03:11:03.304Z,0.00
2023-08-19T03:11:33.029Z,0.00
2023-08-19T03:11:49.483Z,0.00
2023-08-19T03:12:21.642Z,0.00
2023-08-19T03:12:38.877Z,0.00
2023-08-19T03:13:10.583Z,0.00
2023-08-19T03:13:33.005Z,0.00
2023-08-19T03:13:57.639Z,0.00
2023-08-19T03:14:29.589Z,0.00
2023-08-19T03:15:02.160Z,0.00
2023-08-19T03:15:33.019Z,0.00
2023-08-19T03:15:49.505Z,0.00
2023-08-19T03:16:22.563Z,0.00
2023-08-19T03:16:39.832Z,0.00
2023-08-19T03:17:09.923Z,0.00
2023-08-19T03:17:33.342Z,0.00
2023-08-19T03:17:57.635Z,0.00
2023-08-19T03:18:30.620Z,0.00
2023-08-19T03:19:01.601Z,0.00
2023-08-19T03:19:34.031Z,0.00
2023-08-19T03:20:05.628Z,0.00
2023-08-19T03:20:33.027Z,0.00
2023-08-19T03:20:53.647Z,0.00
2023-08-19T03:21:25.664Z,0.00
2023-08-19T03:21:58.459Z,0.00
2023-08-19T03:22:29.626Z,0.00
2023-08-19T03:23:02.520Z,0.00
2023-08-19T03:23:33.010Z,0.00
2023-08-19T03:23:49.533Z,0.00
2023-08-19T03:24:21.620Z,0.00
2023-08-19T03:24:38.898Z,0.00
2023-08-19T03:25:10.526Z,0.00
2023-08-19T03:25:33.037Z,0.00
2023-08-19T03:25:57.600Z,0.00
2023-08-19T03:26:29.600Z,0.00
2023-08-19T03:27:01.618Z,0.00
2023-08-19T03:27:33.250Z,0.00
2023-08-19T03:27:49.491Z,0.00
2023-08-19T03:28:22.498Z,0.00
2023-08-19T03:28:39.761Z,0.00
2023-08-19T03:29:09.588Z,0.00
2023-08-19T03:29:33.038Z,0.00
2023-08-19T03:29:57.617Z,0.00
2023-08-19T03:30:30.812Z,0.00
2023-08-19T03:31:01.613Z,0.00
2023-08-19T03:31:33.944Z,0.00
2023-08-19T03:32:05.588Z,0.00
2023-08-19T03:32:33.108Z,0.00
2023-08-19T03:32:53.745Z,0.00
2023-08-19T03:33:25.803Z,0.00
2023-08-19T03:33:58.507Z,0.00
2023-08-19T03:34:29.602Z,0.00
2023-08-19T03:35:02.718Z,0.00
2023-08-19T03:35:33.024Z,0.00
2023-08-19T03:35:49.523Z,0.00
2023-08-19T03:36:27.669Z,0.00
2023-08-19T03:36:33.014Z,0.00
2023-08-19T03:36:53.558Z,0.00
2023-08-19T03:37:25.729Z,0.00
2023-08-19T03:37:58.078Z,0.00
2023-08-19T03:38:29.599Z,0.00
2023-08-19T03:39:01.631Z,0.00
2023-08-19T03:39:33.028Z,0.00
2023-08-19T03:39:50.690Z,0.00
2023-08-19T03:40:22.626Z,0.00
2023-08-19T03:40:39.928Z,0.00
2023-08-19T03:41:09.575Z,0.00
2023-08-19T03:41:33.130Z,0.00
2023-08-19T03:42:11.270Z,0.00
2023-08-19T03:42:13.586Z,0.00
2023-08-19T03:42:33.022Z,0.00
2023-08-19T03:43:01.602Z,0.00
2023-08-19T03:43:33.019Z,0.00
2023-08-19T03:43:49.517Z,0.00
2023-08-19T03:44:21.569Z,0.00
2023-08-19T03:44:39.668Z,0.00
2023-08-19T03:45:09.880Z,0.00
2023-08-19T03:45:33.499Z,0.00
2023-08-19T03:45:57.635Z,0.00
2023-08-19T03:46:29.632Z,0.00
2023-08-19T03:47:03.611Z,0.00
2023-08-19T03:47:33.380Z,0.00
2023-08-19T03:47:49.504Z,0.00
2023-08-19T03:48:21.561Z,0.00
2023-08-19T03:48:38.775Z,0.00
2023-08-19T03:49:10.633Z,0.00
2023-08-19T03:49:33.011Z,0.00
2023-08-19T03:49:57.590Z,0.00
2023-08-19T03:50:29.613Z,0.00
2023-08-19T03:51:01.578Z,0.00
2023-08-19T03:51:33.983Z,0.00
2023-08-19T03:52:05.877Z,0.00
2023-08-19T03:52:33.020Z,0.00
2023-08-19T03:52:53.543Z,0.00
2023-08-19T03:53:26.504Z,0.00
2023-08-19T03:53:57.551Z,0.00
2023-08-19T03:54:30.581Z,0.00
2023-08-19T03:55:02.155Z,0.00
2023-08-19T03:55:33.880Z,0.00
2023-08-19T03:56:05.574Z,0.00
2023-08-19T03:56:33.063Z,0.00
2023-08-19T03:56:53.516Z,0.00
2023-08-19T03:57:25.547Z,0.00
2023-08-19T03:57:58.862Z,0.00
2023-08-19T03:58:29.611Z,0.00
2023-08-19T03:59:03.543Z,0.00
2023-08-19T03:59:33.099Z,0.00
2023-08-19T03:59:49.556Z,0.00
2023-08-19T04:00:21.627Z,0.00
2023-08-19T04:00:38.815Z,0.00
2023-08-19T04:01:11.473Z,0.00
2023-08-19T04:01:33.061Z,0.00
2023-08-19T04:01:57.586Z,0.00
2023-08-19T04:02:29.570Z,0.00
2023-08-19T04:03:01.625Z,0.00
2023-08-19T04:03:33.019Z,0.00
2023-08-19T04:03:49.546Z,0.00
2023-08-19T04:04:22.688Z,0.00
2023-08-19T04:04:39.853Z,0.00
2023-08-19T04:05:10.085Z,0.00
2023-08-19T04:05:33.005Z,0.00
2023-08-19T04:05:57.558Z,0.00
2023-08-19T04:06:31.484Z,0.00
2023-08-19T04:07:01.572Z,0.00
2023-08-19T04:07:34.283Z,0.00
2023-08-19T04:08:05.586Z,0.00
2023-08-19T04:08:33.011Z,0.00
2023-08-19T04:08:53.519Z,0.00
2023-08-19T04:09:25.538Z,0.00
2023-08-19T04:09:59.525Z,0.00
2023-08-19T04:10:29.585Z,0.00
2023-08-19T04:11:02.490Z,0.00
2023-08-19T04:11:33.390Z,0.00
2023-08-19T04:12:06.517Z,0.00
2023-08-19T04:12:33.034Z,0.00
2023-08-19T04:12:53.566Z,0.00
2023-08-19T04:13:25.603Z,0.00
2023-08-19T04:13:57.554Z,0.00
2023-08-19T04:14:29.554Z,0.00
2023-08-19T04:15:02.505Z,0.00
2023-08-19T04:15:33.042Z,0.00
2023-08-19T04:15:49.517Z,0.00
2023-08-19T04:16:22.436Z,0.00
2023-08-19T04:16:39.704Z,0.00
2023-08-19T04:17:09.933Z,0.36
2023-08-19T04:17:33.281Z,0.00
2023-08-19T04:17:57.624Z,0.00
2023-08-19T04:18:30.532Z,0.00
2023-08-19T04:19:01.575Z,0.36
2023-08-19T04:19:34.220Z,0.85
2023-08-19T04:20:06.494Z,0.36
2023-08-19T04:20:34.008Z,0.85
2023-08-19T04:20:53.585Z,0.85
2023-08-19T04:21:26.745Z,1.71
2023-08-19T04:21:58.758Z,1.22
2023-08-19T04:22:29.561Z,2.08
2023-08-19T04:23:02.545Z,1.71
2023-08-19T04:23:33.040Z,1.71
2023-08-19T04:23:49.576Z,1.22
2023-08-19T04:24:21.616Z,2.57
2023-08-19T04:24:38.786Z,2.08
2023-08-19T04:25:11.253Z,2.57
2023-08-19T04:25:33.081Z,2.94
2023-08-19T04:25:57.591Z,2.94
2023-08-19T04:26:29.614Z,2.57
2023-08-19T04:27:01.871Z,2.94
2023-08-19T04:27:33.420Z,3.43
2023-08-19T04:27:49.580Z,3.79
2023-08-19T04:28:22.739Z,3.79
2023-08-19T04:28:39.861Z,3.43
2023-08-19T04:29:09.589Z,3.43
2023-08-19T04:29:33.077Z,4.28
2023-08-19T04:29:57.864Z,4.77
2023-08-19T04:30:30.606Z,4.28
2023-08-19T04:31:01.628Z,4.77
2023-08-19T04:31:33.994Z,4.77
2023-08-19T04:32:05.561Z,5.14
2023-08-19T04:32:33.106Z,5.63
2023-08-19T04:32:53.734Z,4.77
2023-08-19T04:33:25.626Z,5.63
2023-08-19T04:33:58.489Z,5.63
2023-08-19T04:34:29.543Z,5.99
2023-08-19T04:35:02.608Z,5.63
2023-08-19T04:35:33.478Z,6.85
2023-08-19T04:36:06.566Z,6.85
2023-08-19T04:36:33.590Z,7.34
2023-08-19T04:36:53.546Z,7.70
2023-08-19T04:37:25.539Z,7.70
2023-08-19T04:37:57.630Z,7.70
2023-08-19T04:38:29.575Z,8.19
2023-08-19T04:39:01.642Z,8.19
2023-08-19T04:39:33.821Z,8.56
2023-08-19T04:40:05.639Z,9.54
2023-08-19T04:40:33.070Z,9.05
2023-08-19T04:40:53.629Z,9.54
2023-08-19T04:41:26.457Z,9.54
2023-08-19T04:42:00.318Z,9.91
2023-08-19T04:42:30.622Z,10.39
2023-08-19T04:43:01.538Z,10.39
2023-08-19T04:43:33.912Z,10.39
2023-08-19T04:44:05.578Z,10.77
2023-08-19T04:44:33.613Z,11.25
2023-08-19T04:44:53.500Z,11.62
2023-08-19T04:45:25.611Z,12.11
2023-08-19T04:45:58.882Z,11.62
2023-08-19T04:46:30.350Z,12.97
2023-08-19T04:47:02.570Z,13.33
2023-08-19T04:47:33.315Z,13.33
2023-08-19T04:47:49.612Z,13.33
2023-08-19T04:48:21.947Z,13.82
2023-08-19T04:48:39.218Z,14.31
2023-08-19T04:49:10.494Z,14.31
2023-08-19T04:49:33.226Z,14.68
2023-08-19T04:49:57.616Z,14.31
2023-08-19T04:50:29.515Z,15.17
2023-08-19T04:51:01.606Z,16.02
2023-08-19T04:51:33.080Z,15.53
2023-08-19T04:51:49.557Z,16.02
2023-08-19T04:52:22.936Z,16.88
2023-08-19T04:52:40.171Z,16.02
2023-08-19T04:53:09.577Z,16.39
2023-08-19T04:53:33.169Z,16.88
2023-08-19T04:53:57.926Z,17.25
2023-08-19T04:54:30.785Z,17.25
2023-08-19T04:55:02.001Z,17.25
2023-08-19T04:55:34.024Z,17.25
2023-08-19T04:56:05.622Z,18.11
2023-08-19T04:56:33.053Z,18.11
2023-08-19T04:56:53.489Z,18.60
2023-08-19T04:57:25.577Z,19.45
2023-08-19T04:57:58.520Z,19.08
2023-08-19T04:58:29.541Z,20.31
2023-08-19T04:59:02.594Z,19.45
2023-08-19T04:59:33.040Z,20.80
2023-08-19T04:59:49.707Z,20.31
2023-08-19T05:00:21.724Z,21.16
2023-08-19T05:00:38.972Z,20.80
2023-08-19T05:01:10.696Z,21.16
2023-08-19T05:01:33.128Z,21.16
2023-08-19T05:01:57.510Z,21.65
2023-08-19T05:02:29.564Z,22.02
2023-08-19T05:03:01.592Z,22.51
2023-08-19T05:03:33.083Z,22.51
2023-08-19T05:03:49.594Z,22.87
2023-08-19T05:04:22.762Z,22.87
2023-08-19T05:04:39.845Z,22.87
2023-08-19T05:05:10.111Z,23.36
2023-08-19T05:05:33.034Z,23.85
2023-08-19T05:05:57.584Z,24.71
2023-08-19T05:06:30.385Z,24.71
2023-08-19T05:07:01.571Z,23.85
2023-08-19T05:07:34.355Z,24.71
2023-08-19T05:08:05.510Z,25.07
2023-08-19T05:08:33.078Z,25.07
2023-08-19T05:08:53.550Z,25.07
2023-08-19T05:09:25.727Z,26.42
2023-08-19T05:09:58.559Z,25.94
2023-08-19T05:10:29.468Z,26.42
2023-08-19T05:11:02.512Z,27.28
2023-08-19T05:11:33.046Z,25.94
2023-08-19T05:11:49.582Z,27.28
2023-08-19T05:12:21.501Z,26.79
2023-08-19T05:12:38.727Z,27.28
2023-08-19T05:13:10.981Z,27.65
2023-08-19T05:13:33.096Z,27.28
2023-08-19T05:13:57.553Z,27.28
2023-08-19T05:14:29.551Z,28.14
2023-08-19T05:15:02.090Z,28.63
2023-08-19T05:15:33.144Z,27.65
2023-08-19T05:15:49.713Z,28.99
2023-08-19T05:16:22.438Z,27.65
2023-08-19T05:16:40.456Z,28.63
2023-08-19T05:17:09.805Z,28.63
2023-08-19T05:17:33.379Z,28.63
2023-08-19T05:17:57.997Z,29.85
2023-08-19T05:18:30.566Z,31.19
2023-08-19T05:19:02.555Z,31.56
2023-08-19T05:19:34.128Z,31.19
2023-08-19T05:20:05.479Z,31.56
2023-08-19T05:20:33.119Z,32.05
2023-08-19T05:20:53.489Z,32.05
2023-08-19T05:21:25.553Z,32.42
2023-08-19T05:21:58.798Z,31.56
2023-08-19T05:22:29.518Z,32.05
2023-08-19T05:23:02.470Z,31.56
2023-08-19T05:23:33.029Z,31.56
2023-08-19T05:23:49.534Z,32.05
2023-08-19T05:24:21.516Z,32.42
2023-08-19T05:24:38.738Z,32.42
2023-08-19T05:25:11.444Z,33.39
2023-08-19T05:25:33.054Z,32.90
2023-08-19T05:25:57.830Z,32.90
2023-08-19T05:26:29.461Z,33.39
2023-08-19T05:27:01.527Z,33.39
2023-08-19T05:27:33.180Z,33.76
2023-08-19T05:27:49.549Z,35.11
2023-08-19T05:28:24.196Z,36.33
2023-08-19T05:28:41.121Z,36.82
2023-08-19T05:29:10.155Z,37.19
2023-08-19T05:29:33.017Z,36.33
2023-08-19T05:29:57.453Z,36.82
2023-08-19T05:30:30.622Z,35.97
2023-08-19T05:31:01.551Z,36.33
2023-08-19T05:31:34.263Z,35.97
2023-08-19T05:32:05.525Z,36.33
2023-08-19T05:32:33.076Z,36.82
2023-08-19T05:32:53.615Z,35.97
2023-08-19T05:33:25.488Z,35.97
2023-08-19T05:33:58.935Z,36.33
2023-08-19T05:34:29.527Z,37.68
2023-08-19T05:35:02.498Z,38.53
2023-08-19T05:35:33.100Z,39.39
2023-08-19T05:35:49.593Z,39.88
2023-08-19T05:36:21.740Z,39.39
2023-08-19T05:36:38.877Z,38.53
2023-08-19T05:37:10.517Z,38.53
2023-08-19T05:37:33.729Z,38.17
2023-08-19T05:37:57.494Z,39.02
2023-08-19T05:38:33.083Z,39.02
2023-08-19T05:39:01.538Z,40.73
2023-08-19T05:39:33.024Z,41.10
2023-08-19T05:39:49.572Z,40.73
2023-08-19T05:40:22.393Z,40.24
2023-08-19T05:40:39.664Z,40.24
2023-08-19T05:41:09.670Z,40.24
2023-08-19T05:41:33.094Z,40.73
2023-08-19T05:41:58.033Z,40.73
2023-08-19T05:42:31.564Z,41.96
2023-08-19T05:43:01.536Z,44.65
2023-08-19T05:43:34.120Z,43.80
2023-08-19T05:44:05.492Z,45.87
2023-08-19T05:44:33.055Z,45.87
2023-08-19T05:44:53.574Z,46.73
2023-08-19T05:45:25.701Z,46.73
2023-08-19T05:45:58.393Z,47.22
2023-08-19T05:46:29.490Z,48.56
2023-08-19T05:47:03.216Z,48.93
2023-08-19T05:47:33.321Z,49.42
2023-08-19T05:47:49.607Z,50.28
2023-08-19T05:48:21.468Z,49.79
2023-08-19T05:48:38.721Z,49.79
2023-08-19T05:49:10.509Z,50.65
2023-08-19T05:49:33.064Z,50.65
2023-08-19T05:49:57.950Z,51.14
2023-08-19T05:50:29.635Z,51.50
2023-08-19T05:51:01.470Z,52.48
2023-08-19T05:51:33.297Z,52.48
2023-08-19T05:51:49.515Z,53.70
2023-08-19T05:52:22.874Z,53.70
2023-08-19T05:52:40.077Z,52.85
2023-08-19T05:53:09.906Z,54.19
2023-08-19T05:53:33.027Z,54.19
2023-08-19T05:53:57.482Z,54.19
2023-08-19T05:54:30.621Z,54.19
2023-08-19T05:55:02.996Z,55.90
2023-08-19T05:55:34.448Z,54.56
2023-08-19T05:56:05.480Z,55.90
2023-08-19T05:56:33.082Z,56.76
2023-08-19T05:56:53.460Z,57.25
2023-08-19T05:57:32.486Z,56.27
2023-08-19T05:57:58.401Z,54.56
2023-08-19T05:58:29.482Z,53.34
2023-08-19T05:59:02.508Z,51.99
2023-08-19T05:59:33.261Z,51.50
2023-08-19T06:00:06.553Z,52.48
2023-08-19T06:00:33.047Z,53.70
2023-08-19T06:00:53.531Z,54.19
2023-08-19T06:01:25.489Z,54.19
2023-08-19T06:01:57.424Z,56.27
2023-08-19T06:02:29.491Z,55.05
2023-08-19T06:03:01.572Z,55.05
2023-08-19T06:03:33.105Z,53.34
2023-08-19T06:04:05.467Z,52.48
2023-08-19T06:04:33.037Z,52.85
2023-08-19T06:04:53.404Z,51.14
2023-08-19T06:05:27.345Z,50.28
2023-08-19T06:05:57.990Z,49.42
2023-08-19T06:06:30.375Z,51.99
2023-08-19T06:07:01.523Z,53.70
2023-08-19T06:07:34.393Z,54.56
2023-08-19T06:08:05.422Z,57.25